createdAt,value
2023-03-07T00:02:20.950Z,3.55
2023-03-07T00:05:07.830Z,4.55
2023-03-07T00:07:53.443Z,1.80
2023-03-07T00:10:38.977Z,3.33
2023-03-07T00:13:24.256Z,2.33
2023-03-07T00:16:15.955Z,2.67
2023-03-07T00:19:01.521Z,2.70
2023-03-07T00:21:46.936Z,3.50
2023-03-07T00:24:32.426Z,2.03
2023-03-07T00:27:17.868Z,1.50
2023-03-07T00:30:06.001Z,2.40
2023-03-07T00:32:51.624Z,3.42
2023-03-07T00:35:37.084Z,4.70
2023-03-07T00:38:22.852Z,2.10
2023-03-07T00:41:13.967Z,3.08
2023-03-07T00:43:59.469Z,4.10
2023-03-07T00:46:44.808Z,4.80
2023-03-07T00:49:30.266Z,2.42
2023-03-07T00:52:15.551Z,2.05
2023-03-07T00:55:01.115Z,2.50
2023-03-07T00:57:46.516Z,4.70
2023-03-07T01:00:32.211Z,2.70
2023-03-07T01:03:18.929Z,2.22
2023-03-07T01:06:18.029Z,2.28
2023-03-07T01:09:07.477Z,2.45
2023-03-07T01:11:53.204Z,3.17
2023-03-07T01:14:38.826Z,2.78
2023-03-07T01:17:24.151Z,4.32
2023-03-07T01:20:10.985Z,2.70
2023-03-07T01:22:56.749Z,1.77
2023-03-07T01:25:43.807Z,2.53
2023-03-07T01:28:29.492Z,2.38
2023-03-07T01:31:14.934Z,3.30
2023-03-07T01:34:01.700Z,2.42
2023-03-07T01:36:47.236Z,1.52
2023-03-07T01:39:32.550Z,2.42
2023-03-07T01:42:18.350Z,1.80
2023-03-07T01:45:34.544Z,3.60
2023-03-07T01:48:20.307Z,1.52
2023-03-07T01:51:05.824Z,1.40
2023-03-07T01:53:53.977Z,1.20
2023-03-07T01:56:41.437Z,1.52
2023-03-07T01:59:40.269Z,1.48
2023-03-07T02:02:26.580Z,1.15
2023-03-07T02:05:45.651Z,1.10
2023-03-07T02:08:33.306Z,1.00
2023-03-07T02:11:19.006Z,1.63
2023-03-07T02:14:04.491Z,1.50
2023-03-07T02:16:50.157Z,1.38
2023-03-07T02:20:24.122Z,1.25
2023-03-07T02:23:39.214Z,1.10
2023-03-07T02:26:49.491Z,1.23
2023-03-07T02:29:35.218Z,1.27
2023-03-07T02:32:21.141Z,1.25
2023-03-07T02:35:21.587Z,0.90
2023-03-07T02:38:08.183Z,1.10
2023-03-07T02:40:55.485Z,1.42
2023-03-07T02:43:41.294Z,1.65
2023-03-07T02:46:26.703Z,1.48
2023-03-07T02:49:12.289Z,1.88
2023-03-07T02:51:57.670Z,1.17
2023-03-07T02:54:42.952Z,3.38
2023-03-07T02:57:28.344Z,1.33
2023-03-07T03:00:14.474Z,1.48
2023-03-07T03:03:00.226Z,1.55
2023-03-07T03:05:45.904Z,1.35
2023-03-07T03:08:31.268Z,1.25
2023-03-07T03:11:16.747Z,1.08
2023-03-07T03:14:02.167Z,0.90
2023-03-07T03:16:47.736Z,1.10
2023-03-07T03:19:33.425Z,0.90
2023-03-07T03:22:18.792Z,1.27
2023-03-07T03:25:07.359Z,3.20
2023-03-07T03:27:52.824Z,1.15
2023-03-07T03:30:38.168Z,1.98
2023-03-07T03:33:23.606Z,1.00
2023-03-07T03:36:14.971Z,1.42
2023-03-07T03:39:01.010Z,1.38
2023-03-07T03:41:46.833Z,2.35
2023-03-07T03:44:32.334Z,1.65
2023-03-07T03:47:18.400Z,1.55
2023-03-07T03:50:04.934Z,1.55
2023-03-07T03:52:50.370Z,2.85
2023-03-07T03:55:35.945Z,1.80
2023-03-07T03:58:21.420Z,1.63
2023-03-07T04:01:11.940Z,3.33
2023-03-07T04:03:58.479Z,1.63
2023-03-07T04:06:44.148Z,4.45
2023-03-07T04:09:29.548Z,1.90
2023-03-07T04:12:15.119Z,1.88
2023-03-07T04:15:00.647Z,1.50
2023-03-07T04:17:45.995Z,3.55
2023-03-07T04:20:31.561Z,1.92
2023-03-07T04:23:19.358Z,1.85
2023-03-07T04:26:07.952Z,4.55
2023-03-07T04:28:53.350Z,1.50
2023-03-07T04:31:38.878Z,2.03
2023-03-07T04:34:25.719Z,3.60
2023-03-07T04:37:11.449Z,2.72
2023-03-07T04:39:56.825Z,2.70
2023-03-07T04:42:42.329Z,2.67
2023-03-07T04:45:27.923Z,2.55
2023-03-07T04:48:13.428Z,1.65
2023-03-07T04:50:58.824Z,2.00
2023-03-07T04:53:44.565Z,3.28
2023-03-07T04:56:30.047Z,1.50
2023-03-07T04:59:15.367Z,1.90
2023-03-07T05:02:00.763Z,1.80
2023-03-07T05:04:46.401Z,1.95
2023-03-07T05:07:32.723Z,1.83
2023-03-07T05:10:18.625Z,1.25
2023-03-07T05:13:04.468Z,0.90
2023-03-07T05:15:55.919Z,4.50
2023-03-07T05:21:27.217Z,2.35
2023-03-07T05:24:12.740Z,3.53
2023-03-07T05:26:58.360Z,2.15
2023-03-07T05:29:43.859Z,2.50
2023-03-07T05:32:29.446Z,4.53
2023-03-07T05:35:14.976Z,5.22
2023-03-07T05:38:00.590Z,4.78
2023-03-07T05:40:46.337Z,3.33
2023-03-07T05:43:32.274Z,2.70
2023-03-07T05:46:17.548Z,2.53
2023-03-07T05:49:02.982Z,1.60
2023-03-07T05:51:48.352Z,2.60
2023-03-07T05:54:33.714Z,4.45
2023-03-07T05:57:19.254Z,4.45
2023-03-07T06:00:06.329Z,3.47
2023-03-07T06:02:52.107Z,3.20
2023-03-07T06:05:37.384Z,2.25
2023-03-07T06:08:23.427Z,2.05
2023-03-07T06:11:10.697Z,2.35
2023-03-07T06:13:56.414Z,4.47
2023-03-07T06:16:41.886Z,2.22
2023-03-07T06:19:27.524Z,1.95
2023-03-07T06:22:12.930Z,1.50
2023-03-07T06:24:58.450Z,1.83
2023-03-07T06:27:46.267Z,2.97
2023-03-07T06:30:32.137Z,5.38
2023-03-07T06:33:18.633Z,2.67
2023-03-07T06:36:10.979Z,2.40
2023-03-07T06:38:56.628Z,2.58
2023-03-07T06:41:42.637Z,1.67
2023-03-07T06:44:28.776Z,3.53
2023-03-07T06:47:14.297Z,3.22
2023-03-07T06:49:59.831Z,2.53
2023-03-07T06:52:45.408Z,2.65
2023-03-07T06:55:31.387Z,2.95
2023-03-07T06:58:17.691Z,2.42
2023-03-07T07:01:03.349Z,2.40
2023-03-07T07:03:49.817Z,2.38
2023-03-07T07:06:35.264Z,1.70
2023-03-07T07:09:20.846Z,2.05
2023-03-07T07:12:07.093Z,3.20
2023-03-07T07:14:52.580Z,1.60
2023-03-07T07:17:38.052Z,2.53
2023-03-07T07:20:24.025Z,2.15
2023-03-07T07:23:09.562Z,3.33
2023-03-07T07:25:55.104Z,5.28
2023-03-07T07:28:40.548Z,3.20
2023-03-07T07:31:25.987Z,4.20
2023-03-07T07:34:11.286Z,2.85
2023-03-07T07:36:56.828Z,2.25
2023-03-07T07:39:42.066Z,3.05
2023-03-07T07:42:27.364Z,3.47
2023-03-07T07:45:12.911Z,4.15
2023-03-07T07:47:58.551Z,3.42
2023-03-07T07:50:43.890Z,2.58
2023-03-07T07:53:30.347Z,3.90
2023-03-07T07:56:15.918Z,3.35
2023-03-07T07:59:01.470Z,4.93
2023-03-07T08:01:46.842Z,3.10
2023-03-07T08:04:32.260Z,2.70
2023-03-07T08:07:17.787Z,2.15
2023-03-07T08:10:04.501Z,4.13
2023-03-07T08:12:51.086Z,3.55
2023-03-07T08:15:36.789Z,4.40
2023-03-07T08:18:22.820Z,2.72
2023-03-07T08:21:08.692Z,2.63
2023-03-07T08:23:55.371Z,2.83
2023-03-07T08:26:40.847Z,2.85
2023-03-07T08:29:26.485Z,2.38
2023-03-07T08:32:15.270Z,2.75
2023-03-07T08:35:00.614Z,4.85
2023-03-07T08:37:47.904Z,2.72
2023-03-07T08:40:33.121Z,2.53
2023-03-07T08:43:18.546Z,4.97
2023-03-07T08:46:04.888Z,6.30
2023-03-07T08:48:50.497Z,3.45
2023-03-07T08:51:36.255Z,3.58
2023-03-07T08:54:21.627Z,3.50
2023-03-07T08:57:07.087Z,3.22
2023-03-07T08:59:52.615Z,2.53
2023-03-07T09:02:38.433Z,3.42
2023-03-07T09:05:24.881Z,6.85
2023-03-07T09:08:10.307Z,5.93
2023-03-07T09:10:55.825Z,5.88
2023-03-07T09:13:51.550Z,5.68
2023-03-07T09:16:38.002Z,3.63
2023-03-07T09:19:23.365Z,4.82
2023-03-07T09:22:08.841Z,3.15
2023-03-07T09:24:54.351Z,3.78
2023-03-07T09:27:39.698Z,3.33
2023-03-07T09:30:25.389Z,4.68
2023-03-07T09:33:11.194Z,2.67
2023-03-07T09:35:56.608Z,2.17
2023-03-07T09:38:42.583Z,5.53
2023-03-07T09:41:51.904Z,3.20
2023-03-07T09:45:24.379Z,5.00
2023-03-07T09:48:57.254Z,4.90
2023-03-07T09:51:46.570Z,4.20
2023-03-07T09:54:44.741Z,6.35
2023-03-07T09:57:50.507Z,4.38
2023-03-07T10:00:42.924Z,4.90
2023-03-07T10:03:46.361Z,3.17
2023-03-07T10:06:41.474Z,2.80
2023-03-07T10:09:27.305Z,4.25
2023-03-07T10:12:50.803Z,4.53
2023-03-07T10:15:48.340Z,2.40
2023-03-07T10:19:38.260Z,4.63
2023-03-07T10:22:38.773Z,3.08
2023-03-07T10:26:03.624Z,3.67
2023-03-07T10:28:49.645Z,3.97
2023-03-07T10:31:40.833Z,4.53
2023-03-07T10:34:32.871Z,4.53
2023-03-07T10:37:22.600Z,5.30
2023-03-07T10:40:36.748Z,4.40
2023-03-07T10:43:34.067Z,3.58
2023-03-07T10:46:30.603Z,3.50
2023-03-07T10:49:33.287Z,3.15
2023-03-07T10:52:27.887Z,3.00
2023-03-07T10:55:35.915Z,2.65
2023-03-07T10:58:27.782Z,3.00
2023-03-07T11:01:22.529Z,3.78
2023-03-07T11:04:23.420Z,2.78
2023-03-07T11:07:37.581Z,1.92
2023-03-07T11:10:40.556Z,1.92
2023-03-07T11:13:27.449Z,3.67
2023-03-07T11:16:21.585Z,2.58
2023-03-07T11:19:38.848Z,2.25
2023-03-07T11:22:34.315Z,3.17
2023-03-07T11:25:24.544Z,2.22
2023-03-07T11:28:34.161Z,3.25
2023-03-07T11:32:04.736Z,1.77
2023-03-07T11:35:13.504Z,2.25
2023-03-07T11:38:19.899Z,2.25
2023-03-07T11:41:38.581Z,2.03
2023-03-07T11:44:53.278Z,2.35
2023-03-07T11:48:16.069Z,2.10
2023-03-07T11:51:31.796Z,2.20
2023-03-07T11:55:25.960Z,1.90
2023-03-07T11:58:33.250Z,2.55
2023-03-07T12:01:44.011Z,3.08
2023-03-07T12:05:16.535Z,3.30
2023-03-07T12:08:30.221Z,2.80
2023-03-07T12:11:53.149Z,1.38
2023-03-07T12:14:54.099Z,1.88
2023-03-07T12:18:10.881Z,3.28
2023-03-07T12:21:23.700Z,3.10
2023-03-07T12:24:30.843Z,3.55
2023-03-07T12:27:45.997Z,2.08
2023-03-07T12:30:44.466Z,1.83
2023-03-07T12:34:05.386Z,2.33
2023-03-07T12:37:02.678Z,1.40
2023-03-07T12:40:02.642Z,1.95
2023-03-07T12:43:13.395Z,1.60
2023-03-07T12:46:39.000Z,4.10
2023-03-07T12:49:49.224Z,2.70
2023-03-07T12:52:52.369Z,2.63
2023-03-07T12:55:51.762Z,2.75
2023-03-07T12:59:02.620Z,3.38
2023-03-07T13:02:12.595Z,3.42
2023-03-07T13:04:58.026Z,2.72
2023-03-07T13:07:44.008Z,1.60
2023-03-07T13:10:30.900Z,3.75
2023-03-07T13:13:44.691Z,2.92
2023-03-07T13:16:46.243Z,1.63
2023-03-07T13:19:35.103Z,3.70
2023-03-07T13:22:23.374Z,1.40
2023-03-07T13:25:21.045Z,1.65
2023-03-07T13:28:44.963Z,2.85
2023-03-07T13:31:38.848Z,1.70
2023-03-07T13:34:47.030Z,1.63
2023-03-07T13:38:12.369Z,2.88
2023-03-07T13:41:06.179Z,3.00
2023-03-07T13:43:59.500Z,2.00
2023-03-07T13:46:47.378Z,2.20
2023-03-07T13:49:41.432Z,2.75
2023-03-07T13:52:39.580Z,3.05
2023-03-07T13:55:29.105Z,2.72
2023-03-07T13:58:57.943Z,2.78
2023-03-07T14:01:55.078Z,1.90
2023-03-07T14:04:50.118Z,2.40
2023-03-07T14:07:39.628Z,1.10
2023-03-07T14:10:30.763Z,2.75
2023-03-07T14:13:16.053Z,1.00
2023-03-07T14:16:08.015Z,1.92
2023-03-07T14:19:24.028Z,1.27
2023-03-07T14:22:50.731Z,2.50
2023-03-07T14:25:42.646Z,3.20
2023-03-07T14:28:28.699Z,1.60
2023-03-07T14:31:37.653Z,4.80
2023-03-07T14:34:36.106Z,37.17
2023-03-07T14:37:30.863Z,33.13
2023-03-07T14:40:45.982Z,11.05
2023-03-07T14:44:30.721Z,6.38
2023-03-07T14:47:52.260Z,6.03
2023-03-07T14:50:43.411Z,4.93
2023-03-07T14:53:31.155Z,3.90
2023-03-07T14:56:28.835Z,2.72
2023-03-07T14:59:26.318Z,3.45
2023-03-07T15:02:19.708Z,4.60
2023-03-07T15:05:19.052Z,2.60
2023-03-07T15:08:21.827Z,1.98
2023-03-07T15:11:33.945Z,4.63
2023-03-07T15:14:49.080Z,2.05
2023-03-07T15:17:39.768Z,1.35
2023-03-07T15:20:27.682Z,0.82
2023-03-07T15:23:26.904Z,1.42
2023-03-07T15:26:16.341Z,1.17
2023-03-07T15:29:07.095Z,0.55
2023-03-07T15:32:00.069Z,0.80
2023-03-07T15:34:45.763Z,2.17
2023-03-07T15:37:32.796Z,1.02
2023-03-07T15:40:28.749Z,1.35
2023-03-07T15:43:21.314Z,1.10
2023-03-07T15:46:17.814Z,0.80
2023-03-07T15:49:03.890Z,1.33
2023-03-07T15:51:58.492Z,1.15
2023-03-07T15:54:44.200Z,1.00
2023-03-07T15:57:49.066Z,1.10
2023-03-07T16:00:41.210Z,0.82
2023-03-07T16:03:30.139Z,1.65
2023-03-07T16:06:44.706Z,1.10
2023-03-07T16:09:30.006Z,2.00
2023-03-07T16:12:21.024Z,1.92
2023-03-07T16:15:13.466Z,1.95
2023-03-07T16:17:59.083Z,2.28
2023-03-07T16:20:44.345Z,1.73
2023-03-07T16:23:29.870Z,2.25
2023-03-07T16:26:21.672Z,1.85
2023-03-07T16:29:16.975Z,1.40
2023-03-07T16:32:02.934Z,2.53
2023-03-07T16:34:49.509Z,2.53
2023-03-07T16:37:35.022Z,1.60
2023-03-07T16:40:21.535Z,1.50
2023-03-07T16:43:37.028Z,1.75
2023-03-07T16:46:23.969Z,1.50
2023-03-07T16:49:19.823Z,1.42
2023-03-07T16:52:06.819Z,1.05
2023-03-07T16:54:52.876Z,1.55
2023-03-07T16:57:40.253Z,2.10
2023-03-07T17:00:27.930Z,1.45
2023-03-07T17:03:13.881Z,1.25
2023-03-07T17:05:59.169Z,1.50
2023-03-07T17:08:45.598Z,1.35
2023-03-07T17:11:31.935Z,1.67
2023-03-07T17:14:18.579Z,1.13
2023-03-07T17:17:05.445Z,1.17
2023-03-07T17:19:51.178Z,1.55
2023-03-07T17:22:36.691Z,2.10
2023-03-07T17:25:24.005Z,1.80
2023-03-07T17:28:15.028Z,1.30
2023-03-07T17:31:00.438Z,2.97
2023-03-07T17:33:46.948Z,1.92
2023-03-07T17:36:32.346Z,2.40
2023-03-07T17:39:18.068Z,2.63
2023-03-07T17:42:04.592Z,1.67
2023-03-07T17:44:49.870Z,3.13
2023-03-07T17:47:35.942Z,1.35
2023-03-07T17:50:23.250Z,1.20
2023-03-07T17:53:08.669Z,2.58
2023-03-07T17:55:54.005Z,1.92
2023-03-07T17:58:40.379Z,2.28
2023-03-07T18:01:25.939Z,2.28
2023-03-07T18:04:11.483Z,1.42
2023-03-07T18:06:57.559Z,1.73
2023-03-07T18:09:43.129Z,2.25
2023-03-07T18:12:29.494Z,2.42
2023-03-07T18:15:18.010Z,2.25
2023-03-07T18:18:03.747Z,1.48
2023-03-07T18:21:07.744Z,1.48
2023-03-07T18:23:54.186Z,2.97
2023-03-07T18:26:39.956Z,1.77
2023-03-07T18:29:27.068Z,1.40
2023-03-07T18:32:13.233Z,1.80
2023-03-07T18:34:58.699Z,1.70
2023-03-07T18:37:45.368Z,1.73
2023-03-07T18:40:31.172Z,1.30
2023-03-07T18:43:17.001Z,1.50
2023-03-07T18:46:09.716Z,2.63
2023-03-07T18:48:57.920Z,2.03
2023-03-07T18:51:43.975Z,1.80
2023-03-07T18:54:29.656Z,1.50
2023-03-07T18:57:15.488Z,5.32
2023-03-07T19:00:01.295Z,3.05
2023-03-07T19:02:46.717Z,3.28
2023-03-07T19:05:32.186Z,1.90
2023-03-07T19:08:17.751Z,2.80
2023-03-07T19:11:06.891Z,2.58
2023-03-07T19:13:52.572Z,3.40
2023-03-07T19:16:38.847Z,2.28
2023-03-07T19:19:24.493Z,2.60
2023-03-07T19:22:09.883Z,4.63
2023-03-07T19:24:55.380Z,4.35
2023-03-07T19:27:41.078Z,3.13
2023-03-07T19:30:26.516Z,3.85
2023-03-07T19:33:12.294Z,3.63
2023-03-07T19:36:26.112Z,2.20
2023-03-07T19:39:12.798Z,3.75
2023-03-07T19:41:58.822Z,3.00
2023-03-07T19:44:44.497Z,7.07
2023-03-07T19:47:30.246Z,3.22
2023-03-07T19:50:15.844Z,3.80
2023-03-07T19:53:01.373Z,3.80
2023-03-07T19:55:47.400Z,5.13
2023-03-07T19:58:36.808Z,8.05
2023-03-07T20:01:24.242Z,7.75
2023-03-07T20:04:13.081Z,5.70
2023-03-07T20:06:58.399Z,4.72
2023-03-07T20:09:43.996Z,4.97
2023-03-07T20:12:33.138Z,4.50
2023-03-07T20:15:18.933Z,3.70
2023-03-07T20:18:05.278Z,4.60
2023-03-07T20:20:51.169Z,4.60
2023-03-07T20:23:37.198Z,4.70
2023-03-07T20:26:29.165Z,5.47
2023-03-07T20:29:15.054Z,4.22
2023-03-07T20:32:00.479Z,5.05
2023-03-07T20:34:45.964Z,4.53
2023-03-07T20:37:33.820Z,4.97
2023-03-07T20:40:19.593Z,4.43
2023-03-07T20:43:05.860Z,4.32
2023-03-07T20:46:08.082Z,7.43
2023-03-07T20:48:55.768Z,7.43
2023-03-07T20:51:42.682Z,4.95
2023-03-07T20:54:28.660Z,4.55
2023-03-07T20:57:13.918Z,5.93
2023-03-07T20:59:59.689Z,3.67
2023-03-07T21:02:48.219Z,5.07
2023-03-07T21:05:34.104Z,7.25
2023-03-07T21:08:19.562Z,4.68
2023-03-07T21:11:16.345Z,3.08
2023-03-07T21:14:02.009Z,4.10
2023-03-07T21:16:47.465Z,6.55
2023-03-07T21:19:32.741Z,2.95
2023-03-07T21:22:18.252Z,2.85
2023-03-07T21:25:06.335Z,4.85
2023-03-07T21:27:52.286Z,3.67
2023-03-07T21:30:38.494Z,5.97
2023-03-07T21:33:24.316Z,4.55
2023-03-07T21:36:13.194Z,4.35
2023-03-07T21:39:01.212Z,3.35
2023-03-07T21:41:46.827Z,3.25
2023-03-07T21:44:32.295Z,3.22
2023-03-07T21:47:18.502Z,3.50
2023-03-07T21:50:04.734Z,5.28
2023-03-07T21:52:50.373Z,3.10
2023-03-07T21:55:36.523Z,2.70
2023-03-07T21:58:22.894Z,3.60
2023-03-07T22:01:26.898Z,3.67
2023-03-07T22:04:12.660Z,3.10
2023-03-07T22:06:58.498Z,2.53
2023-03-07T22:09:43.978Z,4.70
2023-03-07T22:12:30.120Z,3.42
2023-03-07T22:15:15.769Z,5.20
2023-03-07T22:18:01.194Z,3.78
2023-03-07T22:20:46.685Z,4.30
2023-03-07T22:23:32.312Z,4.10
2023-03-07T22:26:17.689Z,4.22
2023-03-07T22:29:03.214Z,3.88
2023-03-07T22:31:48.845Z,3.33
2023-03-07T22:34:34.238Z,4.45
2023-03-07T22:37:19.663Z,5.13
2023-03-07T22:40:06.740Z,2.53
2023-03-07T22:42:52.131Z,5.43
2023-03-07T22:45:37.670Z,4.03
2023-03-07T22:48:23.321Z,3.17
2023-03-07T22:51:17.258Z,2.55
2023-03-07T22:54:05.138Z,2.53
2023-03-07T22:56:50.956Z,2.90
2023-03-07T22:59:36.371Z,3.35
2023-03-07T23:02:22.162Z,2.35
2023-03-07T23:05:08.118Z,2.63
2023-03-07T23:07:53.880Z,7.05
2023-03-07T23:10:39.688Z,5.63
2023-03-07T23:13:25.317Z,2.13
2023-03-07T23:16:16.211Z,4.85
2023-03-07T23:19:02.975Z,3.50
2023-03-07T23:21:48.520Z,3.83
2023-03-07T23:24:33.965Z,3.97
2023-03-07T23:27:19.427Z,8.35
2023-03-07T23:30:06.800Z,3.08
2023-03-07T23:32:52.074Z,2.72
2023-03-07T23:35:37.687Z,2.65
2023-03-07T23:38:23.014Z,2.78
2023-03-07T23:41:08.500Z,5.78
2023-03-07T23:43:56.715Z,5.25
2023-03-07T23:46:42.344Z,7.65
2023-03-07T23:49:27.698Z,3.38
2023-03-07T23:52:12.904Z,2.55
2023-03-07T23:54:58.435Z,2.53
2023-03-07T23:57:43.988Z,5.75
